sensor_id;sensor_type;location;lat;lon;timestamp;temperature;humidity
70079;DHT22;57451;52.496;13.456;2023-05-10T00:00:28;13.10;50.40
70079;DHT22;57451;52.496;13.456;2023-05-10T00:02:55;13.00;50.30
70079;DHT22;57451;52.496;13.456;2023-05-10T00:05:22;13.00;50.10
70079;DHT22;57451;52.496;13.456;2023-05-10T00:07:49;12.90;50.60
70079;DHT22;57451;52.496;13.456;2023-05-10T00:10:17;12.90;50.50
70079;DHT22;57451;52.496;13.456;2023-05-10T00:12:44;13.00;49.90
70079;DHT22;57451;52.496;13.456;2023-05-10T00:15:11;12.90;50.70
70079;DHT22;57451;52.496;13.456;2023-05-10T00:17:40;12.90;50.90
70079;DHT22;57451;52.496;13.456;2023-05-10T00:20:08;12.90;51.20
70079;DHT22;57451;52.496;13.456;2023-05-10T00:22:36;12.80;50.90
70079;DHT22;57451;52.496;13.456;2023-05-10T00:25:04;12.80;51.10
70079;DHT22;57451;52.496;13.456;2023-05-10T00:27:32;12.80;51.30
70079;DHT22;57451;52.496;13.456;2023-05-10T00:29:59;12.70;51.50
70079;DHT22;57451;52.496;13.456;2023-05-10T00:32:26;12.70;51.80
70079;DHT22;57451;52.496;13.456;2023-05-10T00:34:56;12.70;51.50
70079;DHT22;57451;52.496;13.456;2023-05-10T00:37:23;12.70;51.50
70079;DHT22;57451;52.496;13.456;2023-05-10T00:39:51;12.70;51.60
70079;DHT22;57451;52.496;13.456;2023-05-10T00:42:18;12.70;51.10
70079;DHT22;57451;52.496;13.456;2023-05-10T00:44:45;12.70;51.00
70079;DHT22;57451;52.496;13.456;2023-05-10T00:47:13;12.60;51.00
70079;DHT22;57451;52.496;13.456;2023-05-10T00:49:41;12.60;51.60
70079;DHT22;57451;52.496;13.456;2023-05-10T00:52:10;12.60;51.70
70079;DHT22;57451;52.496;13.456;2023-05-10T00:54:37;12.50;51.30
70079;DHT22;57451;52.496;13.456;2023-05-10T00:57:04;12.50;51.90
70079;DHT22;57451;52.496;13.456;2023-05-10T00:59:32;12.50;51.70
70079;DHT22;57451;52.496;13.456;2023-05-10T01:01:59;12.40;52.30
70079;DHT22;57451;52.496;13.456;2023-05-10T01:04:26;12.40;52.20
70079;DHT22;57451;52.496;13.456;2023-05-10T01:06:55;12.30;52.30
70079;DHT22;57451;52.496;13.456;2023-05-10T01:09:24;12.30;52.20
70079;DHT22;57451;52.496;13.456;2023-05-10T01:11:53;12.30;52.40
70079;DHT22;57451;52.496;13.456;2023-05-10T01:14:22;12.20;52.10
70079;DHT22;57451;52.496;13.456;2023-05-10T01:16:50;12.20;52.40
70079;DHT22;57451;52.496;13.456;2023-05-10T01:19:19;12.10;52.90
70079;DHT22;57451;52.496;13.456;2023-05-10T01:21:55;12.10;52.80
70079;DHT22;57451;52.496;13.456;2023-05-10T01:24:44;12.10;52.60
70079;DHT22;57451;52.496;13.456;2023-05-10T01:27:25;12.10;53.00
70079;DHT22;57451;52.496;13.456;2023-05-10T01:30:13;12.00;53.20
70079;DHT22;57451;52.496;13.456;2023-05-10T01:32:52;12.00;53.80
70079;DHT22;57451;52.496;13.456;2023-05-10T01:35:29;12.00;53.50
70079;DHT22;57451;52.496;13.456;2023-05-10T01:38:04;12.00;53.40
70079;DHT22;57451;52.496;13.456;2023-05-10T01:40:39;12.00;52.90
70079;DHT22;57451;52.496;13.456;2023-05-10T01:43:13;11.90;52.80
70079;DHT22;57451;52.496;13.456;2023-05-10T01:45:49;11.90;53.30
70079;DHT22;57451;52.496;13.456;2023-05-10T01:48:19;11.90;53.50
70079;DHT22;57451;52.496;13.456;2023-05-10T01:50:48;11.90;53.60
70079;DHT22;57451;52.496;13.456;2023-05-10T01:53:18;11.90;53.60
70079;DHT22;57451;52.496;13.456;2023-05-10T01:55:49;11.80;53.60
70079;DHT22;57451;52.496;13.456;2023-05-10T01:58:21;11.70;53.90
70079;DHT22;57451;52.496;13.456;2023-05-10T02:00:50;11.70;54.40
70079;DHT22;57451;52.496;13.456;2023-05-10T02:03:23;11.70;53.90
70079;DHT22;57451;52.496;13.456;2023-05-10T02:05:52;11.70;54.20
70079;DHT22;57451;52.496;13.456;2023-05-10T02:08:21;11.70;54.30
70079;DHT22;57451;52.496;13.456;2023-05-10T02:10:51;11.60;54.40
70079;DHT22;57451;52.496;13.456;2023-05-10T02:13:19;11.60;54.70
70079;DHT22;57451;52.496;13.456;2023-05-10T02:15:48;11.50;54.50
70079;DHT22;57451;52.496;13.456;2023-05-10T02:18:18;11.50;54.50
70079;DHT22;57451;52.496;13.456;2023-05-10T02:20:47;11.50;54.10
70079;DHT22;57451;52.496;13.456;2023-05-10T02:23:17;11.50;54.70
70079;DHT22;57451;52.496;13.456;2023-05-10T02:25:46;11.50;54.70
70079;DHT22;57451;52.496;13.456;2023-05-10T02:28:15;11.40;55.10
70079;DHT22;57451;52.496;13.456;2023-05-10T02:30:43;11.40;54.70
70079;DHT22;57451;52.496;13.456;2023-05-10T02:33:11;11.40;55.10
70079;DHT22;57451;52.496;13.456;2023-05-10T02:35:39;11.40;54.90
70079;DHT22;57451;52.496;13.456;2023-05-10T02:38:10;11.40;55.20
70079;DHT22;57451;52.496;13.456;2023-05-10T02:40:40;11.30;55.30
70079;DHT22;57451;52.496;13.456;2023-05-10T02:43:11;11.30;55.00
70079;DHT22;57451;52.496;13.456;2023-05-10T02:45:39;11.30;55.20
70079;DHT22;57451;52.496;13.456;2023-05-10T02:48:07;11.20;55.30
70079;DHT22;57451;52.496;13.456;2023-05-10T02:50:35;11.20;55.50
70079;DHT22;57451;52.496;13.456;2023-05-10T02:53:11;11.20;55.30
70079;DHT22;57451;52.496;13.456;2023-05-10T02:55:43;11.20;55.60
70079;DHT22;57451;52.496;13.456;2023-05-10T02:58:12;11.10;56.20
70079;DHT22;57451;52.496;13.456;2023-05-10T03:00:39;11.10;55.70
70079;DHT22;57451;52.496;13.456;2023-05-10T03:03:07;11.10;55.40
70079;DHT22;57451;52.496;13.456;2023-05-10T03:05:34;11.00;55.90
70079;DHT22;57451;52.496;13.456;2023-05-10T03:08:04;11.00;55.70
70079;DHT22;57451;52.496;13.456;2023-05-10T03:10:35;11.00;55.40
70079;DHT22;57451;52.496;13.456;2023-05-10T03:13:10;11.00;56.10
70079;DHT22;57451;52.496;13.456;2023-05-10T03:15:47;11.00;55.90
70079;DHT22;57451;52.496;13.456;2023-05-10T03:18:18;11.00;55.30
70079;DHT22;57451;52.496;13.456;2023-05-10T03:20:49;11.00;55.60
70079;DHT22;57451;52.496;13.456;2023-05-10T03:23:22;10.90;56.10
70079;DHT22;57451;52.496;13.456;2023-05-10T03:25:54;10.90;55.60
70079;DHT22;57451;52.496;13.456;2023-05-10T03:28:25;10.80;56.30
70079;DHT22;57451;52.496;13.456;2023-05-10T03:30:53;10.80;56.20
70079;DHT22;57451;52.496;13.456;2023-05-10T03:33:21;10.80;56.00
70079;DHT22;57451;52.496;13.456;2023-05-10T03:35:49;10.80;56.60
70079;DHT22;57451;52.496;13.456;2023-05-10T03:38:16;10.70;56.30
70079;DHT22;57451;52.496;13.456;2023-05-10T03:40:43;10.80;56.30
70079;DHT22;57451;52.496;13.456;2023-05-10T03:43:12;10.80;56.20
70079;DHT22;57451;52.496;13.456;2023-05-10T03:45:39;10.80;56.20
70079;DHT22;57451;52.496;13.456;2023-05-10T03:48:06;10.70;56.40
70079;DHT22;57451;52.496;13.456;2023-05-10T03:50:34;10.70;56.20
70079;DHT22;57451;52.496;13.456;2023-05-10T03:53:02;10.70;56.00
70079;DHT22;57451;52.496;13.456;2023-05-10T03:55:29;10.70;55.90
70079;DHT22;57451;52.496;13.456;2023-05-10T03:57:57;10.70;56.00
70079;DHT22;57451;52.496;13.456;2023-05-10T04:00:27;10.70;55.70
70079;DHT22;57451;52.496;13.456;2023-05-10T04:02:55;10.70;56.10
70079;DHT22;57451;52.496;13.456;2023-05-10T04:05:23;10.70;56.10
70079;DHT22;57451;52.496;13.456;2023-05-10T04:07:52;10.60;56.30
70079;DHT22;57451;52.496;13.456;2023-05-10T04:10:19;10.60;55.70
70079;DHT22;57451;52.496;13.456;2023-05-10T04:12:47;10.60;56.30
70079;DHT22;57451;52.496;13.456;2023-05-10T04:15:15;10.70;56.40
70079;DHT22;57451;52.496;13.456;2023-05-10T04:17:43;10.70;56.30
70079;DHT22;57451;52.496;13.456;2023-05-10T04:20:11;10.60;56.60
70079;DHT22;57451;52.496;13.456;2023-05-10T04:22:39;10.60;55.70
70079;DHT22;57451;52.496;13.456;2023-05-10T04:25:07;10.70;56.50
70079;DHT22;57451;52.496;13.456;2023-05-10T04:27:34;10.70;56.30
70079;DHT22;57451;52.496;13.456;2023-05-10T04:30:03;10.70;56.30
70079;DHT22;57451;52.496;13.456;2023-05-10T04:32:31;10.70;56.60
70079;DHT22;57451;52.496;13.456;2023-05-10T04:34:59;10.60;56.40
70079;DHT22;57451;52.496;13.456;2023-05-10T04:37:27;10.70;56.70
70079;DHT22;57451;52.496;13.456;2023-05-10T04:39:54;10.70;56.60
70079;DHT22;57451;52.496;13.456;2023-05-10T04:42:21;10.70;56.10
70079;DHT22;57451;52.496;13.456;2023-05-10T04:44:48;10.70;56.30
70079;DHT22;57451;52.496;13.456;2023-05-10T04:47:16;10.80;56.30
70079;DHT22;57451;52.496;13.456;2023-05-10T04:49:43;10.80;56.40
70079;DHT22;57451;52.496;13.456;2023-05-10T04:52:11;10.80;56.60
70079;DHT22;57451;52.496;13.456;2023-05-10T04:54:39;10.90;56.60
70079;DHT22;57451;52.496;13.456;2023-05-10T04:57:06;10.90;56.60
70079;DHT22;57451;52.496;13.456;2023-05-10T04:59:35;10.90;56.20
70079;DHT22;57451;52.496;13.456;2023-05-10T05:02:02;10.90;56.40
70079;DHT22;57451;52.496;13.456;2023-05-10T05:04:30;11.00;56.40
70079;DHT22;57451;52.496;13.456;2023-05-10T05:06:58;11.00;56.10
70079;DHT22;57451;52.496;13.456;2023-05-10T05:09:26;11.00;56.30
70079;DHT22;57451;52.496;13.456;2023-05-10T05:11:54;11.00;56.10
70079;DHT22;57451;52.496;13.456;2023-05-10T05:14:21;11.10;56.20
70079;DHT22;57451;52.496;13.456;2023-05-10T05:16:48;11.10;56.20
70079;DHT22;57451;52.496;13.456;2023-05-10T05:19:16;11.20;55.90
70079;DHT22;57451;52.496;13.456;2023-05-10T05:21:43;11.20;55.90
70079;DHT22;57451;52.496;13.456;2023-05-10T05:24:10;11.30;55.70
70079;DHT22;57451;52.496;13.456;2023-05-10T05:26:40;11.30;55.80
70079;DHT22;57451;52.496;13.456;2023-05-10T05:29:08;11.40;55.60
70079;DHT22;57451;52.496;13.456;2023-05-10T05:31:35;11.50;55.30
70079;DHT22;57451;52.496;13.456;2023-05-10T05:34:03;11.50;55.20
70079;DHT22;57451;52.496;13.456;2023-05-10T05:36:30;11.50;55.40
70079;DHT22;57451;52.496;13.456;2023-05-10T05:38:58;11.60;55.30
70079;DHT22;57451;52.496;13.456;2023-05-10T05:41:25;11.70;55.00
70079;DHT22;57451;52.496;13.456;2023-05-10T05:43:54;11.80;55.20
70079;DHT22;57451;52.496;13.456;2023-05-10T05:46:21;11.90;54.90
70079;DHT22;57451;52.496;13.456;2023-05-10T05:48:49;12.00;54.80
70079;DHT22;57451;52.496;13.456;2023-05-10T05:51:16;12.10;54.40
70079;DHT22;57451;52.496;13.456;2023-05-10T05:53:43;12.20;55.00
70079;DHT22;57451;52.496;13.456;2023-05-10T05:56:10;12.40;54.80
70079;DHT22;57451;52.496;13.456;2023-05-10T05:58:37;12.50;54.30
70079;DHT22;57451;52.496;13.456;2023-05-10T06:01:06;12.70;54.10
70079;DHT22;57451;52.496;13.456;2023-05-10T06:03:33;12.80;53.40
70079;DHT22;57451;52.496;13.456;2023-05-10T06:06:00;12.90;53.20
70079;DHT22;57451;52.496;13.456;2023-05-10T06:08:28;13.00;52.90
70079;DHT22;57451;52.496;13.456;2023-05-10T06:10:55;13.10;52.70
70079;DHT22;57451;52.496;13.456;2023-05-10T06:13:22;13.20;52.50
70079;DHT22;57451;52.496;13.456;2023-05-10T06:15:49;13.40;52.20
70079;DHT22;57451;52.496;13.456;2023-05-10T06:18:18;13.50;52.10
70079;DHT22;57451;52.496;13.456;2023-05-10T06:20:45;13.50;51.80
70079;DHT22;57451;52.496;13.456;2023-05-10T06:23:12;13.50;52.00
70079;DHT22;57451;52.496;13.456;2023-05-10T06:25:39;13.70;51.50
70079;DHT22;57451;52.496;13.456;2023-05-10T06:28:07;13.80;51.00
70079;DHT22;57451;52.496;13.456;2023-05-10T06:30:36;13.90;50.80
70079;DHT22;57451;52.496;13.456;2023-05-10T06:33:03;14.00;50.70
70079;DHT22;57451;52.496;13.456;2023-05-10T06:35:31;14.00;50.70
70079;DHT22;57451;52.496;13.456;2023-05-10T06:38:00;14.10;51.00
70079;DHT22;57451;52.496;13.456;2023-05-10T06:40:27;14.20;50.60
70079;DHT22;57451;52.496;13.456;2023-05-10T06:42:54;14.30;50.30
70079;DHT22;57451;52.496;13.456;2023-05-10T06:45:22;14.40;50.40
70079;DHT22;57451;52.496;13.456;2023-05-10T06:47:49;14.40;50.30
70079;DHT22;57451;52.496;13.456;2023-05-10T06:50:16;14.50;50.60
70079;DHT22;57451;52.496;13.456;2023-05-10T06:52:45;14.60;50.50
70079;DHT22;57451;52.496;13.456;2023-05-10T06:55:12;14.70;49.60
70079;DHT22;57451;52.496;13.456;2023-05-10T06:57:39;14.80;49.30
70079;DHT22;57451;52.496;13.456;2023-05-10T07:00:07;14.80;49.60
70079;DHT22;57451;52.496;13.456;2023-05-10T07:02:36;14.80;49.10
70079;DHT22;57451;52.496;13.456;2023-05-10T07:05:04;14.80;48.90
70079;DHT22;57451;52.496;13.456;2023-05-10T07:07:32;14.90;48.80
70079;DHT22;57451;52.496;13.456;2023-05-10T07:10:00;15.00;49.20
70079;DHT22;57451;52.496;13.456;2023-05-10T07:12:27;15.00;49.60
70079;DHT22;57451;52.496;13.456;2023-05-10T07:14:55;15.10;49.00
70079;DHT22;57451;52.496;13.456;2023-05-10T07:17:22;15.20;48.90
70079;DHT22;57451;52.496;13.456;2023-05-10T07:19:49;15.30;49.00
70079;DHT22;57451;52.496;13.456;2023-05-10T07:22:17;15.30;48.80
70079;DHT22;57451;52.496;13.456;2023-05-10T07:24:44;15.40;48.90
70079;DHT22;57451;52.496;13.456;2023-05-10T07:27:13;15.50;49.00
70079;DHT22;57451;52.496;13.456;2023-05-10T07:29:41;15.60;48.50
70079;DHT22;57451;52.496;13.456;2023-05-10T07:32:08;15.60;48.50
70079;DHT22;57451;52.496;13.456;2023-05-10T07:34:35;15.70;48.80
70079;DHT22;57451;52.496;13.456;2023-05-10T07:37:02;15.80;48.10
70079;DHT22;57451;52.496;13.456;2023-05-10T07:39:30;15.90;47.90
70079;DHT22;57451;52.496;13.456;2023-05-10T07:41:57;16.00;48.30
70079;DHT22;57451;52.496;13.456;2023-05-10T07:44:25;16.00;48.10
70079;DHT22;57451;52.496;13.456;2023-05-10T07:46:53;16.10;47.30
70079;DHT22;57451;52.496;13.456;2023-05-10T07:49:20;16.10;47.90
70079;DHT22;57451;52.496;13.456;2023-05-10T07:51:47;16.20;47.40
70079;DHT22;57451;52.496;13.456;2023-05-10T07:54:14;16.20;47.10
70079;DHT22;57451;52.496;13.456;2023-05-10T07:56:42;16.20;46.90
70079;DHT22;57451;52.496;13.456;2023-05-10T07:59:15;16.20;47.40
70079;DHT22;57451;52.496;13.456;2023-05-10T08:01:44;16.30;46.90
70079;DHT22;57451;52.496;13.456;2023-05-10T08:04:12;16.30;47.30
70079;DHT22;57451;52.496;13.456;2023-05-10T08:06:39;16.40;47.40
70079;DHT22;57451;52.496;13.456;2023-05-10T08:09:09;16.50;46.90
70079;DHT22;57451;52.496;13.456;2023-05-10T08:11:36;16.50;47.00
70079;DHT22;57451;52.496;13.456;2023-05-10T08:14:04;16.60;46.90
70079;DHT22;57451;52.496;13.456;2023-05-10T08:16:31;16.70;46.70
70079;DHT22;57451;52.496;13.456;2023-05-10T08:19:01;16.80;46.60
70079;DHT22;57451;52.496;13.456;2023-05-10T08:21:28;16.80;46.20
70079;DHT22;57451;52.496;13.456;2023-05-10T08:23:56;16.90;46.50
70079;DHT22;57451;52.496;13.456;2023-05-10T08:26:23;16.90;46.30
70079;DHT22;57451;52.496;13.456;2023-05-10T08:28:50;17.00;46.20
70079;DHT22;57451;52.496;13.456;2023-05-10T08:31:18;17.00;46.50
70079;DHT22;57451;52.496;13.456;2023-05-10T08:33:46;17.10;45.80
70079;DHT22;57451;52.496;13.456;2023-05-10T08:36:14;17.10;46.20
70079;DHT22;57451;52.496;13.456;2023-05-10T08:38:46;17.30;46.40
70079;DHT22;57451;52.496;13.456;2023-05-10T08:41:16;17.30;46.10
70079;DHT22;57451;52.496;13.456;2023-05-10T08:43:44;17.40;45.70
70079;DHT22;57451;52.496;13.456;2023-05-10T08:46:15;17.50;45.80
70079;DHT22;57451;52.496;13.456;2023-05-10T08:48:45;17.50;45.60
70079;DHT22;57451;52.496;13.456;2023-05-10T08:51:15;17.60;46.20
70079;DHT22;57451;52.496;13.456;2023-05-10T08:53:44;17.70;45.80
70079;DHT22;57451;52.496;13.456;2023-05-10T08:56:12;17.70;45.60
70079;DHT22;57451;52.496;13.456;2023-05-10T08:58:39;17.80;45.70
70079;DHT22;57451;52.496;13.456;2023-05-10T09:01:07;17.90;45.40
70079;DHT22;57451;52.496;13.456;2023-05-10T09:03:38;17.90;45.20
70079;DHT22;57451;52.496;13.456;2023-05-10T09:06:06;18.00;45.50
70079;DHT22;57451;52.496;13.456;2023-05-10T09:08:36;18.20;44.80
70079;DHT22;57451;52.496;13.456;2023-05-10T09:11:05;18.30;44.50
70079;DHT22;57451;52.496;13.456;2023-05-10T09:13:32;18.30;44.60
70079;DHT22;57451;52.496;13.456;2023-05-10T09:16:00;18.30;43.40
70079;DHT22;57451;52.496;13.456;2023-05-10T09:18:39;18.40;44.20
70079;DHT22;57451;52.496;13.456;2023-05-10T09:21:07;18.40;44.10
70079;DHT22;57451;52.496;13.456;2023-05-10T09:23:36;18.50;44.10
70079;DHT22;57451;52.496;13.456;2023-05-10T09:26:04;18.50;43.80
70079;DHT22;57451;52.496;13.456;2023-05-10T09:28:32;18.50;44.40
70079;DHT22;57451;52.496;13.456;2023-05-10T09:31:00;18.70;43.40
70079;DHT22;57451;52.496;13.456;2023-05-10T09:33:27;18.70;43.00
70079;DHT22;57451;52.496;13.456;2023-05-10T09:35:54;18.80;42.90
70079;DHT22;57451;52.496;13.456;2023-05-10T09:38:22;18.80;43.20
70079;DHT22;57451;52.496;13.456;2023-05-10T09:40:53;18.90;43.50
70079;DHT22;57451;52.496;13.456;2023-05-10T09:43:21;19.00;42.90
70079;DHT22;57451;52.496;13.456;2023-05-10T09:45:49;19.10;43.60
70079;DHT22;57451;52.496;13.456;2023-05-10T09:48:23;19.20;42.40
70079;DHT22;57451;52.496;13.456;2023-05-10T09:50:56;19.20;42.20
70079;DHT22;57451;52.496;13.456;2023-05-10T09:53:24;19.30;42.60
70079;DHT22;57451;52.496;13.456;2023-05-10T09:55:51;19.30;42.20
70079;DHT22;57451;52.496;13.456;2023-05-10T09:58:20;19.40;42.70
70079;DHT22;57451;52.496;13.456;2023-05-10T10:00:47;19.40;42.20
70079;DHT22;57451;52.496;13.456;2023-05-10T10:03:20;19.50;42.10
70079;DHT22;57451;52.496;13.456;2023-05-10T10:05:49;19.60;41.50
70079;DHT22;57451;52.496;13.456;2023-05-10T10:08:17;19.70;41.50
70079;DHT22;57451;52.496;13.456;2023-05-10T10:10:44;19.80;41.60
70079;DHT22;57451;52.496;13.456;2023-05-10T10:13:13;19.80;42.40
70079;DHT22;57451;52.496;13.456;2023-05-10T10:15:42;19.90;41.40
70079;DHT22;57451;52.496;13.456;2023-05-10T10:18:12;20.00;41.50
70079;DHT22;57451;52.496;13.456;2023-05-10T10:20:40;20.10;41.40
70079;DHT22;57451;52.496;13.456;2023-05-10T10:23:08;20.20;41.70
70079;DHT22;57451;52.496;13.456;2023-05-10T10:25:35;20.30;42.00
70079;DHT22;57451;52.496;13.456;2023-05-10T10:28:15;20.30;40.80
70079;DHT22;57451;52.496;13.456;2023-05-10T10:30:48;20.40;40.20
70079;DHT22;57451;52.496;13.456;2023-05-10T10:33:30;20.50;40.40
70079;DHT22;57451;52.496;13.456;2023-05-10T10:36:02;20.50;39.80
70079;DHT22;57451;52.496;13.456;2023-05-10T10:38:37;20.40;41.20
70079;DHT22;57451;52.496;13.456;2023-05-10T10:41:10;20.50;41.50
70079;DHT22;57451;52.496;13.456;2023-05-10T10:43:38;20.70;40.10
70079;DHT22;57451;52.496;13.456;2023-05-10T10:46:11;20.70;40.00
70079;DHT22;57451;52.496;13.456;2023-05-10T10:48:48;20.80;40.80
70079;DHT22;57451;52.496;13.456;2023-05-10T10:51:15;20.90;39.80
70079;DHT22;57451;52.496;13.456;2023-05-10T10:53:43;21.00;39.80
70079;DHT22;57451;52.496;13.456;2023-05-10T10:56:11;21.00;40.50
70079;DHT22;57451;52.496;13.456;2023-05-10T10:58:41;21.10;40.00
70079;DHT22;57451;52.496;13.456;2023-05-10T11:01:14;21.20;39.40
70079;DHT22;57451;52.496;13.456;2023-05-10T11:06:37;21.20;40.60
70079;DHT22;57451;52.496;13.456;2023-05-10T11:09:06;21.20;38.30
70079;DHT22;57451;52.496;13.456;2023-05-10T11:11:34;21.20;39.30
70079;DHT22;57451;52.496;13.456;2023-05-10T11:14:03;21.30;38.70
70079;DHT22;57451;52.496;13.456;2023-05-10T11:16:42;21.30;39.50
70079;DHT22;57451;52.496;13.456;2023-05-10T11:19:11;21.30;38.50
70079;DHT22;57451;52.496;13.456;2023-05-10T11:21:45;21.30;39.30
70079;DHT22;57451;52.496;13.456;2023-05-10T11:24:14;21.40;38.90
70079;DHT22;57451;52.496;13.456;2023-05-10T11:26:42;21.50;39.10
70079;DHT22;57451;52.496;13.456;2023-05-10T11:29:09;21.50;37.70
70079;DHT22;57451;52.496;13.456;2023-05-10T11:31:43;21.50;39.30
70079;DHT22;57451;52.496;13.456;2023-05-10T11:34:11;21.50;38.90
70079;DHT22;57451;52.496;13.456;2023-05-10T11:36:39;21.60;39.30
70079;DHT22;57451;52.496;13.456;2023-05-10T11:39:06;21.70;39.10
70079;DHT22;57451;52.496;13.456;2023-05-10T11:41:34;21.90;38.50
70079;DHT22;57451;52.496;13.456;2023-05-10T11:44:02;21.90;39.10
70079;DHT22;57451;52.496;13.456;2023-05-10T11:46:29;22.00;37.60
70079;DHT22;57451;52.496;13.456;2023-05-10T11:49:00;22.00;38.00
70079;DHT22;57451;52.496;13.456;2023-05-10T11:51:34;22.10;37.30
70079;DHT22;57451;52.496;13.456;2023-05-10T11:54:06;22.20;37.60
70079;DHT22;57451;52.496;13.456;2023-05-10T11:56:34;22.20;37.70
70079;DHT22;57451;52.496;13.456;2023-05-10T11:59:01;22.20;37.10
70079;DHT22;57451;52.496;13.456;2023-05-10T12:01:30;22.20;37.10
70079;DHT22;57451;52.496;13.456;2023-05-10T12:04:00;22.30;37.40
70079;DHT22;57451;52.496;13.456;2023-05-10T12:06:29;22.40;37.90
70079;DHT22;57451;52.496;13.456;2023-05-10T12:08:56;22.50;37.40
70079;DHT22;57451;52.496;13.456;2023-05-10T12:11:25;22.50;36.30
70079;DHT22;57451;52.496;13.456;2023-05-10T12:13:53;22.30;36.60
70079;DHT22;57451;52.496;13.456;2023-05-10T12:16:22;22.40;36.70
70079;DHT22;57451;52.496;13.456;2023-05-10T12:18:50;22.50;36.80
70079;DHT22;57451;52.496;13.456;2023-05-10T12:21:20;22.60;37.50
70079;DHT22;57451;52.496;13.456;2023-05-10T12:23:49;22.70;36.50
70079;DHT22;57451;52.496;13.456;2023-05-10T12:26:17;22.90;37.00
70079;DHT22;57451;52.496;13.456;2023-05-10T12:28:44;23.00;36.00
70079;DHT22;57451;52.496;13.456;2023-05-10T12:31:11;23.10;35.70
70079;DHT22;57451;52.496;13.456;2023-05-10T12:33:40;23.10;35.60
70079;DHT22;57451;52.496;13.456;2023-05-10T12:36:10;23.20;36.20
70079;DHT22;57451;52.496;13.456;2023-05-10T12:38:41;23.30;35.50
70079;DHT22;57451;52.496;13.456;2023-05-10T12:41:15;23.30;35.80
70079;DHT22;57451;52.496;13.456;2023-05-10T12:43:43;23.40;36.00
70079;DHT22;57451;52.496;13.456;2023-05-10T12:46:12;23.50;35.20
70079;DHT22;57451;52.496;13.456;2023-05-10T12:48:41;23.50;35.00
70079;DHT22;57451;52.496;13.456;2023-05-10T12:51:08;23.50;35.20
70079;DHT22;57451;52.496;13.456;2023-05-10T12:53:41;23.60;35.30
70079;DHT22;57451;52.496;13.456;2023-05-10T12:56:12;23.70;34.00
70079;DHT22;57451;52.496;13.456;2023-05-10T12:58:39;23.70;34.40
70079;DHT22;57451;52.496;13.456;2023-05-10T13:01:06;23.60;34.90
70079;DHT22;57451;52.496;13.456;2023-05-10T13:03:34;23.60;35.60
70079;DHT22;57451;52.496;13.456;2023-05-10T13:06:02;23.80;36.80
70079;DHT22;57451;52.496;13.456;2023-05-10T13:08:29;24.00;36.10
70079;DHT22;57451;52.496;13.456;2023-05-10T13:11:02;24.10;35.40
70079;DHT22;57451;52.496;13.456;2023-05-10T13:13:30;24.20;34.30
70079;DHT22;57451;52.496;13.456;2023-05-10T13:15:57;24.40;35.20
70079;DHT22;57451;52.496;13.456;2023-05-10T13:18:24;24.50;34.20
70079;DHT22;57451;52.496;13.456;2023-05-10T13:20:53;24.60;33.00
70079;DHT22;57451;52.496;13.456;2023-05-10T13:23:21;24.60;32.90
70079;DHT22;57451;52.496;13.456;2023-05-10T13:25:48;24.70;32.20
70079;DHT22;57451;52.496;13.456;2023-05-10T13:28:16;24.80;33.00
70079;DHT22;57451;52.496;13.456;2023-05-10T13:30:44;24.90;34.10
70079;DHT22;57451;52.496;13.456;2023-05-10T13:33:11;25.00;34.20
70079;DHT22;57451;52.496;13.456;2023-05-10T13:35:38;25.20;33.90
70079;DHT22;57451;52.496;13.456;2023-05-10T13:38:06;25.20;32.70
70079;DHT22;57451;52.496;13.456;2023-05-10T13:40:35;25.40;33.50
70079;DHT22;57451;52.496;13.456;2023-05-10T13:43:03;25.60;31.20
70079;DHT22;57451;52.496;13.456;2023-05-10T13:45:31;25.40;31.30
70079;DHT22;57451;52.496;13.456;2023-05-10T13:47:58;25.40;32.30
70079;DHT22;57451;52.496;13.456;2023-05-10T13:50:26;25.40;33.20
70079;DHT22;57451;52.496;13.456;2023-05-10T13:52:53;25.70;32.20
70079;DHT22;57451;52.496;13.456;2023-05-10T13:55:21;25.90;32.70
70079;DHT22;57451;52.496;13.456;2023-05-10T13:57:48;26.00;31.00
70079;DHT22;57451;52.496;13.456;2023-05-10T14:00:16;26.00;32.90
70079;DHT22;57451;52.496;13.456;2023-05-10T14:02:45;26.00;31.30
70079;DHT22;57451;52.496;13.456;2023-05-10T14:05:12;26.20;31.00
70079;DHT22;57451;52.496;13.456;2023-05-10T14:07:40;26.40;31.10
70079;DHT22;57451;52.496;13.456;2023-05-10T14:10:08;26.60;30.50
70079;DHT22;57451;52.496;13.456;2023-05-10T14:12:35;26.60;30.20
70079;DHT22;57451;52.496;13.456;2023-05-10T14:15:03;26.60;30.90
70079;DHT22;57451;52.496;13.456;2023-05-10T14:17:33;26.60;31.50
70079;DHT22;57451;52.496;13.456;2023-05-10T14:20:02;26.80;31.50
70079;DHT22;57451;52.496;13.456;2023-05-10T14:22:30;26.90;30.40
70079;DHT22;57451;52.496;13.456;2023-05-10T14:24:57;26.90;30.20
70079;DHT22;57451;52.496;13.456;2023-05-10T14:27:25;26.70;30.20
70079;DHT22;57451;52.496;13.456;2023-05-10T14:29:53;26.70;29.80
70079;DHT22;57451;52.496;13.456;2023-05-10T14:32:21;26.60;29.50
70079;DHT22;57451;52.496;13.456;2023-05-10T14:34:48;26.80;30.70
70079;DHT22;57451;52.496;13.456;2023-05-10T14:37:16;27.00;30.60
70079;DHT22;57451;52.496;13.456;2023-05-10T14:39:43;27.30;30.20
70079;DHT22;57451;52.496;13.456;2023-05-10T14:42:11;27.50;29.60
70079;DHT22;57451;52.496;13.456;2023-05-10T14:44:39;27.50;29.00
70079;DHT22;57451;52.496;13.456;2023-05-10T14:47:06;27.50;29.20
70079;DHT22;57451;52.496;13.456;2023-05-10T14:49:35;27.60;29.10
70079;DHT22;57451;52.496;13.456;2023-05-10T14:52:02;27.60;29.80
70079;DHT22;57451;52.496;13.456;2023-05-10T14:54:31;27.70;29.80
70079;DHT22;57451;52.496;13.456;2023-05-10T14:57:00;27.90;28.70
70079;DHT22;57451;52.496;13.456;2023-05-10T14:59:27;27.90;28.70
70079;DHT22;57451;52.496;13.456;2023-05-10T15:01:55;27.70;28.80
70079;DHT22;57451;52.496;13.456;2023-05-10T15:04:23;27.50;28.60
70079;DHT22;57451;52.496;13.456;2023-05-10T15:06:54;27.50;30.60
70079;DHT22;57451;52.496;13.456;2023-05-10T15:09:26;27.50;30.00
70079;DHT22;57451;52.496;13.456;2023-05-10T15:11:55;27.40;29.80
70079;DHT22;57451;52.496;13.456;2023-05-10T15:14:23;27.40;30.50
70079;DHT22;57451;52.496;13.456;2023-05-10T15:16:50;27.40;29.80
70079;DHT22;57451;52.496;13.456;2023-05-10T15:19:17;27.30;29.60
70079;DHT22;57451;52.496;13.456;2023-05-10T15:21:45;27.10;29.70
70079;DHT22;57451;52.496;13.456;2023-05-10T15:24:12;26.80;30.20
70079;DHT22;57451;52.496;13.456;2023-05-10T15:26:40;26.80;30.70